sensor_id;sensor_type;location;lat;lon;timestamp;pressure;altitude;pressure_sealevel;temperature;humidity
64821;BME280;51256;55.654;37.264;2022-11-14T00:00:39;99574.53;;;2.02;71.97
64821;BME280;51256;55.654;37.264;2022-11-14T00:03:06;99558.72;;;2.03;71.25
64821;BME280;51256;55.654;37.264;2022-11-14T00:05:32;99554.31;;;2.04;70.54
64821;BME280;51256;55.654;37.264;2022-11-14T00:08:02;99557.50;;;2.09;69.83
64821;BME280;51256;55.654;37.264;2022-11-14T00:10:27;99554.66;;;1.98;70.44
64821;BME280;51256;55.654;37.264;2022-11-14T00:12:52;99549.75;;;2.07;70.00
64821;BME280;51256;55.654;37.264;2022-11-14T00:15:18;99564.72;;;2.05;69.48
64821;BME280;51256;55.654;37.264;2022-11-14T00:17:43;99573.09;;;1.96;70.00
64821;BME280;51256;55.654;37.264;2022-11-14T00:20:10;99567.28;;;1.91;69.49
64821;BME280;51256;55.654;37.264;2022-11-14T00:22:37;99571.06;;;1.85;68.72
64821;BME280;51256;55.654;37.264;2022-11-14T00:25:02;99572.84;;;1.85;67.47
64821;BME280;51256;55.654;37.264;2022-11-14T00:27:28;99571.81;;;1.87;67.25
64821;BME280;51256;55.654;37.264;2022-11-14T00:29:53;99560.25;;;1.91;68.12
64821;BME280;51256;55.654;37.264;2022-11-14T00:32:19;99558.72;;;2.03;67.32
64821;BME280;51256;55.654;37.264;2022-11-14T00:34:47;99578.22;;;1.98;66.41
64821;BME280;51256;55.654;37.264;2022-11-14T00:37:12;99555.44;;;2.00;67.79
64821;BME280;51256;55.654;37.264;2022-11-14T00:39:37;99572.19;;;2.11;67.27
64821;BME280;51256;55.654;37.264;2022-11-14T00:42:03;99578.13;;;2.15;68.00
64821;BME280;51256;55.654;37.264;2022-11-14T00:44:28;99576.16;;;2.19;67.81
64821;BME280;51256;55.654;37.264;2022-11-14T00:46:54;99597.22;;;2.17;66.17
64821;BME280;51256;55.654;37.264;2022-11-14T00:49:19;99589.69;;;2.11;66.17
64821;BME280;51256;55.654;37.264;2022-11-14T00:51:45;99590.97;;;2.04;66.30
64821;BME280;51256;55.654;37.264;2022-11-14T00:54:10;99613.53;;;2.06;67.52
64821;BME280;51256;55.654;37.264;2022-11-14T00:56:36;99607.13;;;1.96;68.62
64821;BME280;51256;55.654;37.264;2022-11-14T00:59:02;99645.66;;;1.78;70.60
64821;BME280;51256;55.654;37.264;2022-11-14T01:01:27;99625.69;;;1.43;71.48
64821;BME280;51256;55.654;37.264;2022-11-14T01:03:53;99630.69;;;1.15;72.43
64821;BME280;51256;55.654;37.264;2022-11-14T01:06:19;99644.91;;;0.91;73.57
64821;BME280;51256;55.654;37.264;2022-11-14T01:08:44;99621.34;;;0.75;73.75
64821;BME280;51256;55.654;37.264;2022-11-14T01:11:14;99626.91;;;0.69;74.08
64821;BME280;51256;55.654;37.264;2022-11-14T01:13:40;99630.66;;;0.63;74.50
64821;BME280;51256;55.654;37.264;2022-11-14T01:16:06;99638.34;;;0.67;74.64
64821;BME280;51256;55.654;37.264;2022-11-14T01:18:31;99635.03;;;0.63;74.66
64821;BME280;51256;55.654;37.264;2022-11-14T01:20:57;99619.59;;;0.58;74.52
64821;BME280;51256;55.654;37.264;2022-11-14T01:23:22;99638.97;;;0.72;74.29
64821;BME280;51256;55.654;37.264;2022-11-14T01:25:48;99657.09;;;0.75;73.76
64821;BME280;51256;55.654;37.264;2022-11-14T01:28:16;99648.19;;;0.79;73.78
64821;BME280;51256;55.654;37.264;2022-11-14T01:30:41;99663.00;;;0.78;73.26
64821;BME280;51256;55.654;37.264;2022-11-14T01:33:08;99659.69;;;0.75;73.11
64821;BME280;51256;55.654;37.264;2022-11-14T01:35:34;99662.56;;;0.70;73.27
64821;BME280;51256;55.654;37.264;2022-11-14T01:38:00;99652.94;;;0.71;73.15
64821;BME280;51256;55.654;37.264;2022-11-14T01:40:26;99675.75;;;0.67;72.84
64821;BME280;51256;55.654;37.264;2022-11-14T01:46:05;99666.47;;;0.79;72.45
64821;BME280;51256;55.654;37.264;2022-11-14T01:51:28;99666.84;;;0.89;72.01
64821;BME280;51256;55.654;37.264;2022-11-14T01:53:56;99666.09;;;0.87;70.83
64821;BME280;51256;55.654;37.264;2022-11-14T01:56:30;99673.16;;;0.85;70.45
64821;BME280;51256;55.654;37.264;2022-11-14T01:59:09;99673.63;;;0.93;70.03
64821;BME280;51256;55.654;37.264;2022-11-14T02:01:40;99665.69;;;0.94;69.42
64821;BME280;51256;55.654;37.264;2022-11-14T02:04:09;99690.06;;;0.95;68.21
64821;BME280;51256;55.654;37.264;2022-11-14T02:06:37;99677.00;;;0.95;68.21
64821;BME280;51256;55.654;37.264;2022-11-14T02:09:05;99687.91;;;1.03;68.48
64821;BME280;51256;55.654;37.264;2022-11-14T02:11:35;99683.69;;;1.01;68.08
64821;BME280;51256;55.654;37.264;2022-11-14T02:14:01;99711.13;;;1.09;66.86
64821;BME280;51256;55.654;37.264;2022-11-14T02:16:27;99708.00;;;1.03;66.94
64821;BME280;51256;55.654;37.264;2022-11-14T02:18:53;99724.50;;;0.86;68.17
64821;BME280;51256;55.654;37.264;2022-11-14T02:21:18;99700.25;;;0.47;69.09
64821;BME280;51256;55.654;37.264;2022-11-14T02:23:44;99728.03;;;0.30;70.48
64821;BME280;51256;55.654;37.264;2022-11-14T02:26:09;99723.75;;;0.10;71.27
64821;BME280;51256;55.654;37.264;2022-11-14T02:28:35;99720.63;;;0.02;72.15
64821;BME280;51256;55.654;37.264;2022-11-14T02:31:01;99719.88;;;0.00;72.57
64821;BME280;51256;55.654;37.264;2022-11-14T02:33:26;99715.56;;;-0.01;72.45
64821;BME280;51256;55.654;37.264;2022-11-14T02:35:52;99728.38;;;0.04;72.95
64821;BME280;51256;55.654;37.264;2022-11-14T02:38:18;99728.34;;;0.05;72.80
64821;BME280;51256;55.654;37.264;2022-11-14T02:40:43;99722.16;;;0.06;72.33
64821;BME280;51256;55.654;37.264;2022-11-14T02:43:09;99710.63;;;-0.07;71.80
64821;BME280;51256;55.654;37.264;2022-11-14T02:45:34;99734.53;;;0.03;71.96
64821;BME280;51256;55.654;37.264;2022-11-14T02:48:00;99718.81;;;0.04;71.52
64821;BME280;51256;55.654;37.264;2022-11-14T02:50:25;99726.34;;;0.10;70.97
64821;BME280;51256;55.654;37.264;2022-11-14T02:52:51;99720.13;;;0.13;70.69
64821;BME280;51256;55.654;37.264;2022-11-14T02:55:19;99740.13;;;0.14;68.98
64821;BME280;51256;55.654;37.264;2022-11-14T02:57:44;99731.34;;;0.15;68.44
64821;BME280;51256;55.654;37.264;2022-11-14T03:00:10;99735.72;;;0.14;67.26
64821;BME280;51256;55.654;37.264;2022-11-14T03:02:35;99731.75;;;0.25;66.66
64821;BME280;51256;55.654;37.264;2022-11-14T03:05:01;99743.81;;;0.27;65.87
64821;BME280;51256;55.654;37.264;2022-11-14T03:07:26;99742.16;;;0.26;64.82
64821;BME280;51256;55.654;37.264;2022-11-14T03:09:52;99744.91;;;0.23;64.55
64821;BME280;51256;55.654;37.264;2022-11-14T03:12:18;99749.84;;;0.29;64.18
64821;BME280;51256;55.654;37.264;2022-11-14T03:14:44;99732.69;;;0.24;64.10
64821;BME280;51256;55.654;37.264;2022-11-14T03:17:10;99747.31;;;0.28;63.81
64821;BME280;51256;55.654;37.264;2022-11-14T03:19:35;99756.69;;;0.32;64.28
64821;BME280;51256;55.654;37.264;2022-11-14T03:22:00;99746.16;;;0.34;63.93
64821;BME280;51256;55.654;37.264;2022-11-14T03:24:26;99733.19;;;0.32;63.53
64821;BME280;51256;55.654;37.264;2022-11-14T03:26:52;99736.06;;;0.26;62.80
64821;BME280;51256;55.654;37.264;2022-11-14T03:29:17;99746.44;;;0.27;62.02
64821;BME280;51256;55.654;37.264;2022-11-14T03:31:43;99740.38;;;0.27;63.02
64821;BME280;51256;55.654;37.264;2022-11-14T03:34:09;99751.25;;;0.37;63.16
64821;BME280;51256;55.654;37.264;2022-11-14T03:36:35;99764.16;;;0.40;63.12
64821;BME280;51256;55.654;37.264;2022-11-14T03:39:01;99787.75;;;0.38;63.00
64821;BME280;51256;55.654;37.264;2022-11-14T03:41:27;99828.91;;;0.33;60.24
64821;BME280;51256;55.654;37.264;2022-11-14T03:43:53;99757.03;;;0.24;59.75
64821;BME280;51256;55.654;37.264;2022-11-14T03:46:18;99761.84;;;0.14;60.02
64821;BME280;51256;55.654;37.264;2022-11-14T03:48:44;99769.22;;;0.24;60.21
64821;BME280;51256;55.654;37.264;2022-11-14T03:51:09;99765.09;;;0.20;60.36
64821;BME280;51256;55.654;37.264;2022-11-14T03:53:35;99769.91;;;0.29;61.16
64821;BME280;51256;55.654;37.264;2022-11-14T03:56:00;99762.97;;;0.28;60.84
64821;BME280;51256;55.654;37.264;2022-11-14T03:58:26;99768.75;;;0.35;60.89
64821;BME280;51256;55.654;37.264;2022-11-14T04:00:51;99796.66;;;0.34;60.22
64821;BME280;51256;55.654;37.264;2022-11-14T04:03:19;99776.03;;;0.28;60.13
64821;BME280;51256;55.654;37.264;2022-11-14T04:05:45;99776.22;;;0.23;60.00
64821;BME280;51256;55.654;37.264;2022-11-14T04:08:10;99786.69;;;0.23;60.53
64821;BME280;51256;55.654;37.264;2022-11-14T04:10:36;99773.53;;;0.25;60.75
64821;BME280;51256;55.654;37.264;2022-11-14T04:13:03;99803.63;;;0.34;60.01
64821;BME280;51256;55.654;37.264;2022-11-14T04:15:28;99789.28;;;0.23;58.86
64821;BME280;51256;55.654;37.264;2022-11-14T04:17:54;99756.19;;;0.05;59.44
64821;BME280;51256;55.654;37.264;2022-11-14T04:20:19;99792.47;;;0.11;59.58
64821;BME280;51256;55.654;37.264;2022-11-14T04:22:45;99815.31;;;0.06;58.74
64821;BME280;51256;55.654;37.264;2022-11-14T04:25:11;99812.84;;;0.03;58.77
64821;BME280;51256;55.654;37.264;2022-11-14T04:27:36;99792.97;;;0.00;58.19
64821;BME280;51256;55.654;37.264;2022-11-14T04:30:03;99802.69;;;-0.04;58.76
64821;BME280;51256;55.654;37.264;2022-11-14T04:32:29;99812.25;;;-0.04;58.45
64821;BME280;51256;55.654;37.264;2022-11-14T04:34:54;99808.75;;;-0.03;58.45
64821;BME280;51256;55.654;37.264;2022-11-14T04:37:20;99814.16;;;-0.08;58.64
64821;BME280;51256;55.654;37.264;2022-11-14T04:39:45;99816.84;;;-0.09;59.34
64821;BME280;51256;55.654;37.264;2022-11-14T04:42:11;99804.50;;;-0.06;59.41
64821;BME280;51256;55.654;37.264;2022-11-14T04:44:36;99817.69;;;-0.09;58.80
64821;BME280;51256;55.654;37.264;2022-11-14T04:47:02;99803.16;;;-0.14;59.00
64821;BME280;51256;55.654;37.264;2022-11-14T04:49:27;99815.41;;;-0.17;59.04
64821;BME280;51256;55.654;37.264;2022-11-14T04:51:52;99813.84;;;-0.21;58.92
64821;BME280;51256;55.654;37.264;2022-11-14T04:54:18;99826.34;;;-0.27;58.93
64821;BME280;51256;55.654;37.264;2022-11-14T04:56:43;99813.81;;;-0.40;59.20
64821;BME280;51256;55.654;37.264;2022-11-14T04:59:09;99814.31;;;-0.31;59.23
64821;BME280;51256;55.654;37.264;2022-11-14T05:01:34;99818.06;;;-0.37;59.50
64821;BME280;51256;55.654;37.264;2022-11-14T05:04:00;99845.84;;;-0.36;59.17
64821;BME280;51256;55.654;37.264;2022-11-14T05:06:25;99836.50;;;-0.42;59.24
64821;BME280;51256;55.654;37.264;2022-11-14T05:08:51;99841.00;;;-0.45;59.79
64821;BME280;51256;55.654;37.264;2022-11-14T05:11:18;99854.25;;;-0.50;59.50
64821;BME280;51256;55.654;37.264;2022-11-14T05:13:44;99837.91;;;-0.55;59.72
64821;BME280;51256;55.654;37.264;2022-11-14T05:16:10;99848.41;;;-0.57;60.08
64821;BME280;51256;55.654;37.264;2022-11-14T05:18:36;99859.72;;;-0.56;59.85
64821;BME280;51256;55.654;37.264;2022-11-14T05:21:02;99857.28;;;-0.61;60.28
64821;BME280;51256;55.654;37.264;2022-11-14T05:23:28;99860.00;;;-0.64;60.65
64821;BME280;51256;55.654;37.264;2022-11-14T05:26:11;99865.38;;;-0.67;60.50
64821;BME280;51256;55.654;37.264;2022-11-14T05:28:37;99867.31;;;-0.72;60.77
64821;BME280;51256;55.654;37.264;2022-11-14T05:31:10;99865.63;;;-0.73;60.65
64821;BME280;51256;55.654;37.264;2022-11-14T05:33:38;99902.91;;;-0.71;60.57
64821;BME280;51256;55.654;37.264;2022-11-14T05:36:14;99887.44;;;-0.76;61.01
64821;BME280;51256;55.654;37.264;2022-11-14T05:38:41;99885.03;;;-0.80;61.11
64821;BME280;51256;55.654;37.264;2022-11-14T05:41:17;99873.28;;;-0.91;60.93
64821;BME280;51256;55.654;37.264;2022-11-14T05:43:44;99874.50;;;-1.00;61.17
64821;BME280;51256;55.654;37.264;2022-11-14T05:46:12;99893.16;;;-0.88;60.98
64821;BME280;51256;55.654;37.264;2022-11-14T05:48:38;99903.50;;;-0.87;60.83
64821;BME280;51256;55.654;37.264;2022-11-14T05:51:05;99896.66;;;-0.89;60.84
64821;BME280;51256;55.654;37.264;2022-11-14T05:53:32;99897.53;;;-0.89;61.19
64821;BME280;51256;55.654;37.264;2022-11-14T05:56:04;99904.72;;;-0.95;61.29
64821;BME280;51256;55.654;37.264;2022-11-14T05:58:33;99924.84;;;-0.99;61.10
64821;BME280;51256;55.654;37.264;2022-11-14T06:01:09;99911.81;;;-0.99;61.39
64821;BME280;51256;55.654;37.264;2022-11-14T06:03:37;99916.28;;;-1.03;61.40
64821;BME280;51256;55.654;37.264;2022-11-14T06:06:05;99924.25;;;-1.06;61.35
64821;BME280;51256;55.654;37.264;2022-11-14T06:08:32;99915.53;;;-1.05;61.67
64821;BME280;51256;55.654;37.264;2022-11-14T06:11:06;99918.00;;;-1.02;61.94
64821;BME280;51256;55.654;37.264;2022-11-14T06:13:32;99942.34;;;-1.03;61.76
64821;BME280;51256;55.654;37.264;2022-11-14T06:16:02;99938.84;;;-1.02;61.99
64821;BME280;51256;55.654;37.264;2022-11-14T06:18:29;99943.16;;;-1.01;62.29
64821;BME280;51256;55.654;37.264;2022-11-14T06:21:16;99934.38;;;-0.98;62.42
64821;BME280;51256;55.654;37.264;2022-11-14T06:23:43;99955.28;;;-1.00;61.89
64821;BME280;51256;55.654;37.264;2022-11-14T06:26:19;99955.38;;;-1.03;61.56
64821;BME280;51256;55.654;37.264;2022-11-14T06:28:45;99967.72;;;-1.06;60.80
64821;BME280;51256;55.654;37.264;2022-11-14T06:31:10;99986.22;;;-1.14;60.59
64821;BME280;51256;55.654;37.264;2022-11-14T06:33:36;99963.72;;;-1.17;60.77
64821;BME280;51256;55.654;37.264;2022-11-14T06:36:04;100001.16;;;-1.19;60.80
64821;BME280;51256;55.654;37.264;2022-11-14T06:38:30;99970.78;;;-1.20;60.76
64821;BME280;51256;55.654;37.264;2022-11-14T06:41:23;99980.28;;;-1.18;60.47
64821;BME280;51256;55.654;37.264;2022-11-14T06:43:50;99975.16;;;-1.21;60.47
64821;BME280;51256;55.654;37.264;2022-11-14T06:46:19;99973.38;;;-1.19;60.45
64821;BME280;51256;55.654;37.264;2022-11-14T06:48:46;99972.50;;;-1.19;60.57
64821;BME280;51256;55.654;37.264;2022-11-14T06:51:13;99968.16;;;-1.19;60.23
64821;BME280;51256;55.654;37.264;2022-11-14T06:53:39;99972.28;;;-1.13;60.71
64821;BME280;51256;55.654;37.264;2022-11-14T06:56:10;99971.38;;;-1.12;60.60
64821;BME280;51256;55.654;37.264;2022-11-14T06:58:38;99977.44;;;-1.11;60.37
64821;BME280;51256;55.654;37.264;2022-11-14T07:01:06;99980.97;;;-1.12;59.71
64821;BME280;51256;55.654;37.264;2022-11-14T07:03:32;99990.66;;;-1.16;59.71
64821;BME280;51256;55.654;37.264;2022-11-14T07:06:01;99995.78;;;-1.15;59.48
64821;BME280;51256;55.654;37.264;2022-11-14T07:08:28;99998.41;;;-1.15;59.70
64821;BME280;51256;55.654;37.264;2022-11-14T07:10:53;100001.00;;;-1.15;59.67
64821;BME280;51256;55.654;37.264;2022-11-14T07:13:18;99992.22;;;-1.12;59.63
64821;BME280;51256;55.654;37.264;2022-11-14T07:15:51;100008.53;;;-1.07;59.76
64821;BME280;51256;55.654;37.264;2022-11-14T07:18:16;100018.84;;;-1.04;59.54
64821;BME280;51256;55.654;37.264;2022-11-14T07:20:42;100005.84;;;-1.04;59.37
64821;BME280;51256;55.654;37.264;2022-11-14T07:23:07;99985.97;;;-1.08;59.71
64821;BME280;51256;55.654;37.264;2022-11-14T07:25:33;100019.59;;;-1.00;59.29
64821;BME280;51256;55.654;37.264;2022-11-14T07:27:58;99999.59;;;-1.00;59.37
64821;BME280;51256;55.654;37.264;2022-11-14T07:30:24;100023.84;;;-0.98;59.24
64821;BME280;51256;55.654;37.264;2022-11-14T07:32:56;100006.38;;;-0.95;59.49
64821;BME280;51256;55.654;37.264;2022-11-14T07:35:22;100018.56;;;-0.96;58.91
64821;BME280;51256;55.654;37.264;2022-11-14T07:37:48;100012.25;;;-0.90;59.08
64821;BME280;51256;55.654;37.264;2022-11-14T07:40:14;100023.44;;;-0.87;59.39
64821;BME280;51256;55.654;37.264;2022-11-14T07:42:40;100030.25;;;-0.83;59.10
64821;BME280;51256;55.654;37.264;2022-11-14T07:45:06;100037.13;;;-0.82;58.89
64821;BME280;51256;55.654;37.264;2022-11-14T07:47:31;100018.28;;;-0.88;58.59
64821;BME280;51256;55.654;37.264;2022-11-14T07:49:57;100026.66;;;-0.80;58.47
64821;BME280;51256;55.654;37.264;2022-11-14T07:52:22;100033.75;;;-0.84;58.65
64821;BME280;51256;55.654;37.264;2022-11-14T07:54:48;100029.38;;;-0.83;58.34
64821;BME280;51256;55.654;37.264;2022-11-14T07:57:13;100035.47;;;-0.83;58.45
64821;BME280;51256;55.654;37.264;2022-11-14T07:59:39;100029.22;;;-0.78;58.43
64821;BME280;51256;55.654;37.264;2022-11-14T08:02:05;100028.97;;;-0.72;58.41
64821;BME280;51256;55.654;37.264;2022-11-14T08:04:30;100030.56;;;-0.68;58.36
64821;BME280;51256;55.654;37.264;2022-11-14T08:06:56;100031.47;;;-0.69;58.13
64821;BME280;51256;55.654;37.264;2022-11-14T08:09:21;100041.78;;;-0.66;58.19
64821;BME280;51256;55.654;37.264;2022-11-14T08:11:47;100054.03;;;-0.68;58.02
64821;BME280;51256;55.654;37.264;2022-11-14T08:14:14;100033.16;;;-0.68;57.77
64821;BME280;51256;55.654;37.264;2022-11-14T08:16:39;100027.03;;;-0.67;57.92
64821;BME280;51256;55.654;37.264;2022-11-14T08:19:05;100042.63;;;-0.66;57.96
64821;BME280;51256;55.654;37.264;2022-11-14T08:21:30;100033.06;;;-0.65;57.87
64821;BME280;51256;55.654;37.264;2022-11-14T08:23:56;100041.88;;;-0.69;57.53
64821;BME280;51256;55.654;37.264;2022-11-14T08:26:21;100042.63;;;-0.66;58.01
64821;BME280;51256;55.654;37.264;2022-11-14T08:28:51;100048.34;;;-0.56;57.90
64821;BME280;51256;55.654;37.264;2022-11-14T08:31:16;100038.47;;;-0.47;57.91
64821;BME280;51256;55.654;37.264;2022-11-14T08:33:42;100046.78;;;-0.38;57.80
64821;BME280;51256;55.654;37.264;2022-11-14T08:36:09;100050.47;;;-0.43;57.52
64821;BME280;51256;55.654;37.264;2022-11-14T08:38:35;100047.75;;;-0.40;57.35
64821;BME280;51256;55.654;37.264;2022-11-14T08:41:02;100047.41;;;-0.31;56.93
64821;BME280;51256;55.654;37.264;2022-11-14T08:43:29;100064.63;;;-0.27;57.16
64821;BME280;51256;55.654;37.264;2022-11-14T08:45:58;100055.00;;;-0.25;56.76
64821;BME280;51256;55.654;37.264;2022-11-14T08:48:24;100054.78;;;-0.20;56.61
64821;BME280;51256;55.654;37.264;2022-11-14T08:50:50;100054.34;;;0.13;55.89
64821;BME280;51256;55.654;37.264;2022-11-14T08:53:15;100061.59;;;0.27;55.43
64821;BME280;51256;55.654;37.264;2022-11-14T08:55:44;100047.75;;;0.04;54.84
64821;BME280;51256;55.654;37.264;2022-11-14T08:58:10;100064.56;;;-0.03;55.22
64821;BME280;51256;55.654;37.264;2022-11-14T09:00:36;100058.25;;;0.03;55.24
64821;BME280;51256;55.654;37.264;2022-11-14T09:03:09;100045.28;;;0.42;54.66
64821;BME280;51256;55.654;37.264;2022-11-14T09:05:36;100050.03;;;0.32;54.54
64821;BME280;51256;55.654;37.264;2022-11-14T09:08:02;100049.59;;;0.23;55.12
64821;BME280;51256;55.654;37.264;2022-11-14T09:10:28;100050.28;;;0.68;55.56
64821;BME280;51256;55.654;37.264;2022-11-14T09:12:57;100043.94;;;0.94;55.17
64821;BME280;51256;55.654;37.264;2022-11-14T09:15:23;100050.72;;;0.79;54.47
64821;BME280;51256;55.654;37.264;2022-11-14T09:17:52;100050.78;;;0.57;55.05
64821;BME280;51256;55.654;37.264;2022-11-14T09:20:18;100048.75;;;0.43;55.56
64821;BME280;51256;55.654;37.264;2022-11-14T09:22:44;100045.50;;;0.38;55.64
64821;BME280;51256;55.654;37.264;2022-11-14T09:25:10;100047.13;;;0.40;55.47
64821;BME280;51256;55.654;37.264;2022-11-14T09:27:35;100041.25;;;0.35;55.21
64821;BME280;51256;55.654;37.264;2022-11-14T09:30:01;100038.66;;;0.35;54.97
64821;BME280;51256;55.654;37.264;2022-11-14T09:32:26;100033.47;;;0.34;55.53
64821;BME280;51256;55.654;37.264;2022-11-14T09:34:52;100040.97;;;0.41;55.30
64821;BME280;51256;55.654;37.264;2022-11-14T09:37:17;100038.50;;;0.38;55.30
64821;BME280;51256;55.654;37.264;2022-11-14T09:39:43;100040.06;;;0.42;54.48
64821;BME280;51256;55.654;37.264;2022-11-14T09:42:15;100047.13;;;0.40;54.20
64821;BME280;51256;55.654;37.264;2022-11-14T09:44:57;100056.84;;;0.37;54.42
64821;BME280;51256;55.654;37.264;2022-11-14T09:47:28;100062.81;;;0.40;55.05
64821;BME280;51256;55.654;37.264;2022-11-14T09:49:59;100058.34;;;0.42;55.03
64821;BME280;51256;55.654;37.264;2022-11-14T09:55:18;100048.75;;;0.43;54.95
64821;BME280;51256;55.654;37.264;2022-11-14T09:57:45;100038.75;;;0.32;54.69
64821;BME280;51256;55.654;37.264;2022-11-14T10:00:22;100049.09;;;0.35;54.99
64821;BME280;51256;55.654;37.264;2022-11-14T10:11:35;100046.53;;;0.54;55.10
64821;BME280;51256;55.654;37.264;2022-11-14T10:16:30;100042.22;;;0.53;55.95
64821;BME280;51256;55.654;37.264;2022-11-14T10:19:07;100045.63;;;0.55;55.31
64821;BME280;51256;55.654;37.264;2022-11-14T10:27:02;100039.28;;;0.61;55.62
64821;BME280;51256;55.654;37.264;2022-11-14T10:29:38;100043.50;;;0.63;55.84
64821;BME280;51256;55.654;37.264;2022-11-14T10:35:03;100034.75;;;0.64;55.53
64821;BME280;51256;55.654;37.264;2022-11-14T10:37:40;100025.56;;;0.56;55.29
64821;BME280;51256;55.654;37.264;2022-11-14T10:40:23;100025.56;;;0.56;55.55
64821;BME280;51256;55.654;37.264;2022-11-14T10:42:54;100028.09;;;0.57;55.78
64821;BME280;51256;55.654;37.264;2022-11-14T10:45:28;100033.06;;;0.63;56.01
64821;BME280;51256;55.654;37.264;2022-11-14T10:47:58;100020.97;;;0.61;55.47
64821;BME280;51256;55.654;37.264;2022-11-14T10:50:30;100028.97;;;0.58;55.63
64821;BME280;51256;55.654;37.264;2022-11-14T10:53:00;100028.03;;;0.59;55.96
64821;BME280;51256;55.654;37.264;2022-11-14T10:55:28;100039.19;;;0.62;55.21
64821;BME280;51256;55.654;37.264;2022-11-14T10:57:54;100020.19;;;0.59;55.27
64821;BME280;51256;55.654;37.264;2022-11-14T11:00:20;100031.56;;;0.58;55.42
64821;BME280;51256;55.654;37.264;2022-11-14T11:02:50;100031.44;;;0.61;55.58
64821;BME280;51256;55.654;37.264;2022-11-14T11:05:18;100031.31;;;0.64;55.72
64821;BME280;51256;55.654;37.264;2022-11-14T11:07:45;100033.78;;;0.67;55.65
64821;BME280;51256;55.654;37.264;2022-11-14T11:10:31;100032.28;;;0.61;55.60
64821;BME280;51256;55.654;37.264;2022-11-14T11:13:29;100032.22;;;0.63;55.74
64821;BME280;51256;55.654;37.264;2022-11-14T11:15:58;100024.38;;;0.63;54.91
64821;BME280;51256;55.654;37.264;2022-11-14T11:18:25;100037.44;;;0.63;55.27
64821;BME280;51256;55.654;37.264;2022-11-14T11:21:09;100026.09;;;0.64;55.33
64821;BME280;51256;55.654;37.264;2022-11-14T11:23:46;100038.28;;;0.63;54.81
64821;BME280;51256;55.654;37.264;2022-11-14T11:26:24;100033.94;;;0.64;55.04
64821;BME280;51256;55.654;37.264;2022-11-14T11:34:14;100031.25;;;0.66;55.55
64821;BME280;51256;55.654;37.264;2022-11-14T11:36:46;100018.50;;;0.58;55.05
64821;BME280;51256;55.654;37.264;2022-11-14T11:39:22;100041.16;;;0.57;54.98
64821;BME280;51256;55.654;37.264;2022-11-14T11:41:48;100031.69;;;0.55;55.02
64821;BME280;51256;55.654;37.264;2022-11-14T11:44:16;100030.94;;;0.53;55.16
64821;BME280;51256;55.654;37.264;2022-11-14T11:49:23;100037.78;;;0.55;56.06
64821;BME280;51256;55.654;37.264;2022-11-14T11:51:54;100035.09;;;0.57;56.18
64821;BME280;51256;55.654;37.264;2022-11-14T11:54:30;100029.53;;;0.64;56.28
64821;BME280;51256;55.654;37.264;2022-11-14T11:57:00;100031.25;;;0.66;55.95
64821;BME280;51256;55.654;37.264;2022-11-14T11:59:41;100040.91;;;0.63;55.91
64821;BME280;51256;55.654;37.264;2022-11-14T12:02:23;100043.59;;;0.62;56.05
64821;BME280;51256;55.654;37.264;2022-11-14T12:04:50;100037.63;;;0.58;56.03
64821;BME280;51256;55.654;37.264;2022-11-14T12:10:14;100030.78;;;0.56;56.05
64821;BME280;51256;55.654;37.264;2022-11-14T12:20:40;100039.94;;;0.45;55.69
64821;BME280;51256;55.654;37.264;2022-11-14T12:25:44;100042.66;;;0.42;55.64
64821;BME280;51256;55.654;37.264;2022-11-14T12:30:50;100024.53;;;0.39;55.60
64821;BME280;51256;55.654;37.264;2022-11-14T12:33:22;100036.47;;;0.45;55.91
64821;BME280;51256;55.654;37.264;2022-11-14T12:35:52;100029.69;;;0.41;55.52
64821;BME280;51256;55.654;37.264;2022-11-14T12:38:20;100030.66;;;0.38;55.29
64821;BME280;51256;55.654;37.264;2022-11-14T12:40:51;100031.56;;;0.37;55.31
64821;BME280;51256;55.654;37.264;2022-11-14T12:43:32;100025.38;;;0.40;55.38
64821;BME280;51256;55.654;37.264;2022-11-14T12:46:01;100035.97;;;0.37;55.15
64821;BME280;51256;55.654;37.264;2022-11-14T12:50:54;100026.53;;;0.32;55.69
64821;BME280;51256;55.654;37.264;2022-11-14T12:59:21;100031.97;;;0.28;56.32
64821;BME280;51256;55.654;37.264;2022-11-14T13:06:59;100028.75;;;0.21;55.79
64821;BME280;51256;55.654;37.264;2022-11-14T13:12:38;100020.97;;;0.20;55.77
64821;BME280;51256;55.654;37.264;2022-11-14T13:15:45;100028.34;;;0.10;55.98
64821;BME280;51256;55.654;37.264;2022-11-14T13:18:30;100032.91;;;0.05;56.24
64821;BME280;51256;55.654;37.264;2022-11-14T13:21:23;100031.16;;;0.05;55.91
64821;BME280;51256;55.654;37.264;2022-11-14T13:24:09;100036.66;;;-0.01;56.78
64821;BME280;51256;55.654;37.264;2022-11-14T13:26:43;100028.09;;;-0.05;56.67
64821;BME280;51256;55.654;37.264;2022-11-14T13:32:09;100016.38;;;-0.17;56.29
64821;BME280;51256;55.654;37.264;2022-11-14T13:37:16;100031.19;;;-0.17;56.37
64821;BME280;51256;55.654;37.264;2022-11-14T13:42:28;100032.50;;;-0.29;57.02
64821;BME280;51256;55.654;37.264;2022-11-14T13:50:50;100021.78;;;-0.43;57.67
64821;BME280;51256;55.654;37.264;2022-11-14T13:53:25;100032.22;;;-0.43;57.73
64821;BME280;51256;55.654;37.264;2022-11-14T14:07:11;100029.84;;;-0.50;57.92
64821;BME280;51256;55.654;37.264;2022-11-14T14:12:54;100026.75;;;-0.59;58.61
64821;BME280;51256;55.654;37.264;2022-11-14T14:15:47;100017.53;;;-0.68;58.60
64821;BME280;51256;55.654;37.264;2022-11-14T14:18:48;100028.63;;;-0.63;58.76
64821;BME280;51256;55.654;37.264;2022-11-14T14:21:44;100022.72;;;-0.68;58.71
64821;BME280;51256;55.654;37.264;2022-11-14T14:24:24;100028.19;;;-0.74;58.63
64821;BME280;51256;55.654;37.264;2022-11-14T14:27:04;100026.38;;;-0.72;58.84
64821;BME280;51256;55.654;37.264;2022-11-14T14:32:28;100034.75;;;-0.88;59.27
64821;BME280;51256;55.654;37.264;2022-11-14T14:34:54;100030.50;;;-0.90;59.19
64821;BME280;51256;55.654;37.264;2022-11-14T14:37:25;100034.94;;;-0.92;59.30
64821;BME280;51256;55.654;37.264;2022-11-14T14:40:01;100034.22;;;-0.96;59.56